sensor_id;sensor_type;location;lat;lon;timestamp;pressure;altitude;pressure_sealevel;temperature
18161;BMP280;9205;52.032;4.314;2023-05-19T00:01:54;102746.44;;;13.00
18161;BMP280;9205;52.032;4.314;2023-05-19T00:04:24;102742.22;;;12.98
18161;BMP280;9205;52.032;4.314;2023-05-19T00:06:53;102744.75;;;12.86
18161;BMP280;9205;52.032;4.314;2023-05-19T00:09:22;102746.47;;;12.87
18161;BMP280;9205;52.032;4.314;2023-05-19T00:11:50;102746.44;;;12.85
18161;BMP280;9205;52.032;4.314;2023-05-19T00:14:18;102745.63;;;12.88
18161;BMP280;9205;52.032;4.314;2023-05-19T00:16:45;102749.84;;;12.84
18161;BMP280;9205;52.032;4.314;2023-05-19T00:19:13;102743.91;;;12.78
18161;BMP280;9205;52.032;4.314;2023-05-19T00:21:42;102747.31;;;12.75
18161;BMP280;9205;52.032;4.314;2023-05-19T00:24:10;102743.06;;;12.71
18161;BMP280;9205;52.032;4.314;2023-05-19T00:26:38;102746.47;;;12.73
18161;BMP280;9205;52.032;4.314;2023-05-19T00:29:06;102744.78;;;12.71
18161;BMP280;9205;52.032;4.314;2023-05-19T00:31:33;102747.31;;;12.71
18161;BMP280;9205;52.032;4.314;2023-05-19T00:34:00;102753.28;;;12.65
18161;BMP280;9205;52.032;4.314;2023-05-19T00:36:28;102751.56;;;12.60
18161;BMP280;9205;52.032;4.314;2023-05-19T00:38:57;102755.81;;;12.61
18161;BMP280;9205;52.032;4.314;2023-05-19T00:41:24;102755.81;;;12.58
18161;BMP280;9205;52.032;4.314;2023-05-19T00:43:52;102750.69;;;12.53
18161;BMP280;9205;52.032;4.314;2023-05-19T00:46:19;102746.47;;;12.55
18161;BMP280;9205;52.032;4.314;2023-05-19T00:48:47;102743.06;;;12.56
18161;BMP280;9205;52.032;4.314;2023-05-19T00:51:15;102750.72;;;12.55
18161;BMP280;9205;52.032;4.314;2023-05-19T00:53:45;102738.81;;;12.54
18161;BMP280;9205;52.032;4.314;2023-05-19T00:56:16;102738.81;;;12.47
18161;BMP280;9205;52.032;4.314;2023-05-19T00:58:44;102748.16;;;12.46
18161;BMP280;9205;52.032;4.314;2023-05-19T01:01:11;102748.16;;;12.37
18161;BMP280;9205;52.032;4.314;2023-05-19T01:03:40;102741.34;;;12.30
18161;BMP280;9205;52.032;4.314;2023-05-19T01:06:07;102743.03;;;12.33
18161;BMP280;9205;52.032;4.314;2023-05-19T01:08:36;102743.06;;;12.31
18161;BMP280;9205;52.032;4.314;2023-05-19T01:11:04;102749.84;;;12.31
18161;BMP280;9205;52.032;4.314;2023-05-19T01:13:34;102739.66;;;12.29
18161;BMP280;9205;52.032;4.314;2023-05-19T01:16:09;102737.09;;;12.31
18161;BMP280;9205;52.032;4.314;2023-05-19T01:18:46;102734.53;;;12.31
18161;BMP280;9205;52.032;4.314;2023-05-19T01:21:39;102737.94;;;12.27
18161;BMP280;9205;52.032;4.314;2023-05-19T01:24:55;102741.34;;;12.20
18161;BMP280;9205;52.032;4.314;2023-05-19T01:30:36;102729.41;;;12.04
18161;BMP280;9205;52.032;4.314;2023-05-19T01:33:09;102735.38;;;12.07
18161;BMP280;9205;52.032;4.314;2023-05-19T01:35:39;102733.69;;;12.05
18161;BMP280;9205;52.032;4.314;2023-05-19T01:38:10;102730.28;;;12.07
18161;BMP280;9205;52.032;4.314;2023-05-19T01:40:40;102738.75;;;12.03
18161;BMP280;9205;52.032;4.314;2023-05-19T01:43:14;102731.94;;;12.01
18161;BMP280;9205;52.032;4.314;2023-05-19T01:45:45;102737.03;;;11.96
18161;BMP280;9205;52.032;4.314;2023-05-19T01:48:13;102733.66;;;11.94
18161;BMP280;9205;52.032;4.314;2023-05-19T01:50:41;102725.13;;;11.95
18161;BMP280;9205;52.032;4.314;2023-05-19T01:53:09;102722.59;;;11.88
18161;BMP280;9205;52.032;4.314;2023-05-19T01:55:43;102726.00;;;11.85
18161;BMP280;9205;52.032;4.314;2023-05-19T01:58:20;102721.72;;;11.84
18161;BMP280;9205;52.032;4.314;2023-05-19T02:00:57;102721.75;;;11.83
18161;BMP280;9205;52.032;4.314;2023-05-19T02:03:56;102714.94;;;11.86
18161;BMP280;9205;52.032;4.314;2023-05-19T02:06:36;102717.47;;;11.85
18161;BMP280;9205;52.032;4.314;2023-05-19T02:09:14;102714.06;;;11.81
18161;BMP280;9205;52.032;4.314;2023-05-19T02:11:54;102716.63;;;11.78
18161;BMP280;9205;52.032;4.314;2023-05-19T02:14:29;102719.19;;;11.78
18161;BMP280;9205;52.032;4.314;2023-05-19T02:17:01;102717.47;;;11.77
18161;BMP280;9205;52.032;4.314;2023-05-19T02:19:33;102717.47;;;11.73
18161;BMP280;9205;52.032;4.314;2023-05-19T02:22:00;102714.91;;;11.72
18161;BMP280;9205;52.032;4.314;2023-05-19T02:24:28;102719.13;;;11.65
18161;BMP280;9205;52.032;4.314;2023-05-19T02:26:55;102717.41;;;11.58
18161;BMP280;9205;52.032;4.314;2023-05-19T02:29:22;102714.84;;;11.57
18161;BMP280;9205;52.032;4.314;2023-05-19T02:31:49;102711.47;;;11.61
18161;BMP280;9205;52.032;4.314;2023-05-19T02:34:19;102714.84;;;11.61
18161;BMP280;9205;52.032;4.314;2023-05-19T02:36:46;102711.47;;;11.59
18161;BMP280;9205;52.032;4.314;2023-05-19T02:39:14;102712.31;;;11.60
18161;BMP280;9205;52.032;4.314;2023-05-19T02:41:42;102712.31;;;11.60
18161;BMP280;9205;52.032;4.314;2023-05-19T02:44:09;102702.97;;;11.57
18161;BMP280;9205;52.032;4.314;2023-05-19T02:46:36;102708.91;;;11.61
18161;BMP280;9205;52.032;4.314;2023-05-19T02:49:03;102707.22;;;11.60
18161;BMP280;9205;52.032;4.314;2023-05-19T02:51:32;102712.31;;;11.60
18161;BMP280;9205;52.032;4.314;2023-05-19T02:53:59;102708.06;;;11.59
18161;BMP280;9205;52.032;4.314;2023-05-19T02:56:26;102704.66;;;11.57
18161;BMP280;9205;52.032;4.314;2023-05-19T02:58:54;102705.50;;;11.57
18161;BMP280;9205;52.032;4.314;2023-05-19T03:01:21;102702.09;;;11.55
18161;BMP280;9205;52.032;4.314;2023-05-19T03:03:48;102703.75;;;11.50
18161;BMP280;9205;52.032;4.314;2023-05-19T03:06:16;102696.09;;;11.49
18161;BMP280;9205;52.032;4.314;2023-05-19T03:08:44;102693.56;;;11.44
18161;BMP280;9205;52.032;4.314;2023-05-19T03:11:11;102691.84;;;11.45
18161;BMP280;9205;52.032;4.314;2023-05-19T03:13:40;102691.00;;;11.46
18161;BMP280;9205;52.032;4.314;2023-05-19T03:16:07;102694.41;;;11.45
18161;BMP280;9205;52.032;4.314;2023-05-19T03:18:34;102682.53;;;11.47
18161;BMP280;9205;52.032;4.314;2023-05-19T03:21:02;102694.47;;;11.52
18161;BMP280;9205;52.032;4.314;2023-05-19T03:23:29;102692.72;;;11.47
18161;BMP280;9205;52.032;4.314;2023-05-19T03:25:58;102688.47;;;11.44
18161;BMP280;9205;52.032;4.314;2023-05-19T03:28:26;102685.09;;;11.47
18161;BMP280;9205;52.032;4.314;2023-05-19T03:30:53;102679.16;;;11.48
18161;BMP280;9205;52.032;4.314;2023-05-19T03:33:24;102691.03;;;11.44
18161;BMP280;9205;52.032;4.314;2023-05-19T03:35:53;102685.06;;;11.44
18161;BMP280;9205;52.032;4.314;2023-05-19T03:38:20;102682.50;;;11.38
18161;BMP280;9205;52.032;4.314;2023-05-19T03:40:57;102685.88;;;11.31
18161;BMP280;9205;52.032;4.314;2023-05-19T03:43:24;102682.47;;;11.32
18161;BMP280;9205;52.032;4.314;2023-05-19T03:45:56;102682.47;;;11.35
18161;BMP280;9205;52.032;4.314;2023-05-19T03:48:46;102679.94;;;11.38
18161;BMP280;9205;52.032;4.314;2023-05-19T03:51:32;102683.34;;;11.38
18161;BMP280;9205;52.032;4.314;2023-05-19T03:54:15;102682.50;;;11.36
18161;BMP280;9205;52.032;4.314;2023-05-19T03:56:45;102691.00;;;11.40
18161;BMP280;9205;52.032;4.314;2023-05-19T03:59:12;102681.63;;;11.37
18161;BMP280;9205;52.032;4.314;2023-05-19T04:01:41;102687.59;;;11.38
18161;BMP280;9205;52.032;4.314;2023-05-19T04:04:08;102678.22;;;11.32
18161;BMP280;9205;52.032;4.314;2023-05-19T04:06:35;102685.03;;;11.33
18161;BMP280;9205;52.032;4.314;2023-05-19T04:09:10;102684.19;;;11.36
18161;BMP280;9205;52.032;4.314;2023-05-19T04:11:38;102688.44;;;11.35
18161;BMP280;9205;52.032;4.314;2023-05-19T04:14:07;102693.53;;;11.35
18161;BMP280;9205;52.032;4.314;2023-05-19T04:16:36;102693.53;;;11.35
18161;BMP280;9205;52.032;4.314;2023-05-19T04:19:03;102691.81;;;11.33
18161;BMP280;9205;52.032;4.314;2023-05-19T04:21:30;102696.00;;;11.29
18161;BMP280;9205;52.032;4.314;2023-05-19T04:23:57;102696.03;;;11.31
18161;BMP280;9205;52.032;4.314;2023-05-19T04:26:25;102686.69;;;11.31
18161;BMP280;9205;52.032;4.314;2023-05-19T04:28:55;102695.19;;;11.30
18161;BMP280;9205;52.032;4.314;2023-05-19T04:31:25;102698.63;;;11.35
18161;BMP280;9205;52.032;4.314;2023-05-19T04:33:53;102696.91;;;11.36
18161;BMP280;9205;52.032;4.314;2023-05-19T04:36:21;102697.78;;;11.41
18161;BMP280;9205;52.032;4.314;2023-05-19T04:38:51;102694.38;;;11.39
18161;BMP280;9205;52.032;4.314;2023-05-19T04:41:21;102702.88;;;11.44
18161;BMP280;9205;52.032;4.314;2023-05-19T04:43:49;102704.59;;;11.43
18161;BMP280;9205;52.032;4.314;2023-05-19T04:46:17;102701.19;;;11.46
18161;BMP280;9205;52.032;4.314;2023-05-19T04:48:50;102704.59;;;11.45
18161;BMP280;9205;52.032;4.314;2023-05-19T04:51:18;102708.00;;;11.50
18161;BMP280;9205;52.032;4.314;2023-05-19T04:53:46;102699.56;;;11.52
18161;BMP280;9205;52.032;4.314;2023-05-19T04:56:13;102704.59;;;11.51
18161;BMP280;9205;52.032;4.314;2023-05-19T04:58:41;102713.13;;;11.53
18161;BMP280;9205;52.032;4.314;2023-05-19T05:01:09;102707.19;;;11.57
18161;BMP280;9205;52.032;4.314;2023-05-19T05:03:38;102704.69;;;11.63
18161;BMP280;9205;52.032;4.314;2023-05-19T05:06:07;102707.25;;;11.63
18161;BMP280;9205;52.032;4.314;2023-05-19T05:08:34;102713.19;;;11.68
18161;BMP280;9205;52.032;4.314;2023-05-19T05:11:05;102708.97;;;11.70
18161;BMP280;9205;52.032;4.314;2023-05-19T05:13:34;102714.03;;;11.67
18161;BMP280;9205;52.032;4.314;2023-05-19T05:16:02;102710.63;;;11.69
18161;BMP280;9205;52.032;4.314;2023-05-19T05:18:32;102703.03;;;11.76
18161;BMP280;9205;52.032;4.314;2023-05-19T05:21:00;102707.28;;;11.82
18161;BMP280;9205;52.032;4.314;2023-05-19T05:23:30;102712.41;;;11.86
18161;BMP280;9205;52.032;4.314;2023-05-19T05:25:58;102709.88;;;11.91
18161;BMP280;9205;52.032;4.314;2023-05-19T05:28:27;102713.25;;;11.90
18161;BMP280;9205;52.032;4.314;2023-05-19T05:30:56;102716.66;;;11.95
18161;BMP280;9205;52.032;4.314;2023-05-19T05:33:24;102713.28;;;11.94
18161;BMP280;9205;52.032;4.314;2023-05-19T05:35:52;102707.34;;;12.01
18161;BMP280;9205;52.032;4.314;2023-05-19T05:38:19;102717.53;;;12.13
18161;BMP280;9205;52.032;4.314;2023-05-19T05:40:48;102718.41;;;12.15
18161;BMP280;9205;52.032;4.314;2023-05-19T05:43:16;102715.00;;;12.16
18161;BMP280;9205;52.032;4.314;2023-05-19T05:45:49;102703.94;;;12.07
18161;BMP280;9205;52.032;4.314;2023-05-19T05:48:16;102715.84;;;12.17
18161;BMP280;9205;52.032;4.314;2023-05-19T05:50:45;102709.91;;;12.21
18161;BMP280;9205;52.032;4.314;2023-05-19T05:53:18;102709.06;;;12.23
18161;BMP280;9205;52.032;4.314;2023-05-19T05:55:50;102709.06;;;12.35
18161;BMP280;9205;52.032;4.314;2023-05-19T05:58:20;102708.22;;;12.42
18161;BMP280;9205;52.032;4.314;2023-05-19T06:00:47;102698.03;;;12.48
18161;BMP280;9205;52.032;4.314;2023-05-19T06:03:16;102699.72;;;12.55
18161;BMP280;9205;52.032;4.314;2023-05-19T06:05:46;102699.72;;;12.61
18161;BMP280;9205;52.032;4.314;2023-05-19T06:08:14;102692.06;;;12.61
18161;BMP280;9205;52.032;4.314;2023-05-19T06:10:42;102695.47;;;12.58
18161;BMP280;9205;52.032;4.314;2023-05-19T06:13:12;102697.16;;;12.70
18161;BMP280;9205;52.032;4.314;2023-05-19T06:15:41;102706.50;;;12.71
18161;BMP280;9205;52.032;4.314;2023-05-19T06:18:15;102696.28;;;12.74
18161;BMP280;9205;52.032;4.314;2023-05-19T06:20:43;102703.09;;;12.78
18161;BMP280;9205;52.032;4.314;2023-05-19T06:23:10;102701.38;;;12.87
18161;BMP280;9205;52.032;4.314;2023-05-19T06:25:37;102704.81;;;12.98
18161;BMP280;9205;52.032;4.314;2023-05-19T06:28:04;102708.16;;;13.08
18161;BMP280;9205;52.032;4.314;2023-05-19T06:30:33;102699.66;;;13.06
18161;BMP280;9205;52.032;4.314;2023-05-19T06:33:15;102706.47;;;13.07
18161;BMP280;9205;52.032;4.314;2023-05-19T06:35:42;102703.06;;;13.08
18161;BMP280;9205;52.032;4.314;2023-05-19T06:38:09;102715.81;;;13.12
18161;BMP280;9205;52.032;4.314;2023-05-19T06:40:37;102711.56;;;13.11
18161;BMP280;9205;52.032;4.314;2023-05-19T06:43:04;102714.09;;;13.16
18161;BMP280;9205;52.032;4.314;2023-05-19T06:45:52;102711.53;;;13.17
18161;BMP280;9205;52.032;4.314;2023-05-19T06:48:19;102708.13;;;13.20
18161;BMP280;9205;52.032;4.314;2023-05-19T06:50:47;102706.41;;;13.22
18161;BMP280;9205;52.032;4.314;2023-05-19T06:53:17;102702.16;;;13.28
18161;BMP280;9205;52.032;4.314;2023-05-19T06:55:45;102702.97;;;13.30
18161;BMP280;9205;52.032;4.314;2023-05-19T06:58:15;102700.41;;;13.39
18161;BMP280;9205;52.032;4.314;2023-05-19T07:00:43;102712.25;;;13.50
18161;BMP280;9205;52.032;4.314;2023-05-19T07:03:15;102702.91;;;13.55
18161;BMP280;9205;52.032;4.314;2023-05-19T07:05:43;102701.16;;;13.60
18161;BMP280;9205;52.032;4.314;2023-05-19T07:08:10;102696.03;;;13.62
18161;BMP280;9205;52.032;4.314;2023-05-19T07:10:38;102697.72;;;13.67
18161;BMP280;9205;52.032;4.314;2023-05-19T07:13:10;102707.06;;;13.76
18161;BMP280;9205;52.032;4.314;2023-05-19T07:15:37;102695.09;;;13.81
18161;BMP280;9205;52.032;4.314;2023-05-19T07:18:04;102692.50;;;13.85
18161;BMP280;9205;52.032;4.314;2023-05-19T07:20:33;102695.84;;;13.98
18161;BMP280;9205;52.032;4.314;2023-05-19T07:23:00;102694.97;;;14.00
18161;BMP280;9205;52.032;4.314;2023-05-19T07:25:28;102699.19;;;14.04
18161;BMP280;9205;52.032;4.314;2023-05-19T07:27:55;102688.06;;;14.09
18161;BMP280;9205;52.032;4.314;2023-05-19T07:30:23;102687.22;;;14.15
18161;BMP280;9205;52.032;4.314;2023-05-19T07:32:50;102688.94;;;14.16
18161;BMP280;9205;52.032;4.314;2023-05-19T07:35:18;102687.09;;;14.30
18161;BMP280;9205;52.032;4.314;2023-05-19T07:37:49;102696.38;;;14.41
18161;BMP280;9205;52.032;4.314;2023-05-19T07:40:17;102696.34;;;14.49
18161;BMP280;9205;52.032;4.314;2023-05-19T07:42:46;102703.94;;;14.56
18161;BMP280;9205;52.032;4.314;2023-05-19T07:45:14;102696.19;;;14.64
18161;BMP280;9205;52.032;4.314;2023-05-19T07:47:41;102694.41;;;14.70
18161;BMP280;9205;52.032;4.314;2023-05-19T07:50:09;102697.78;;;14.77
18161;BMP280;9205;52.032;4.314;2023-05-19T07:52:36;102694.38;;;14.75
18161;BMP280;9205;52.032;4.314;2023-05-19T07:55:05;102688.47;;;14.68
18161;BMP280;9205;52.032;4.314;2023-05-19T07:57:32;102690.94;;;14.77
18161;BMP280;9205;52.032;4.314;2023-05-19T08:00:00;102689.19;;;14.82
18161;BMP280;9205;52.032;4.314;2023-05-19T08:02:37;102681.41;;;14.89
18161;BMP280;9205;52.032;4.314;2023-05-19T08:05:06;102683.88;;;15.01
18161;BMP280;9205;52.032;4.314;2023-05-19T08:07:34;102685.56;;;15.02
18161;BMP280;9205;52.032;4.314;2023-05-19T08:10:01;102683.84;;;15.03
18161;BMP280;9205;52.032;4.314;2023-05-19T08:12:30;102678.66;;;15.07
18161;BMP280;9205;52.032;4.314;2023-05-19T08:14:57;102686.31;;;15.10
18161;BMP280;9205;52.032;4.314;2023-05-19T08:17:24;102684.63;;;15.08
18161;BMP280;9205;52.032;4.314;2023-05-19T08:19:51;102690.59;;;15.08
18161;BMP280;9205;52.032;4.314;2023-05-19T08:22:19;102681.13;;;15.16
18161;BMP280;9205;52.032;4.314;2023-05-19T08:24:46;102684.41;;;15.30
18161;BMP280;9205;52.032;4.314;2023-05-19T08:27:14;102680.88;;;15.40
18161;BMP280;9205;52.032;4.314;2023-05-19T08:29:43;102682.47;;;15.46
18161;BMP280;9205;52.032;4.314;2023-05-19T08:32:10;102672.22;;;15.49
18161;BMP280;9205;52.032;4.314;2023-05-19T08:34:38;102672.16;;;15.53
18161;BMP280;9205;52.032;4.314;2023-05-19T08:37:06;102661.78;;;15.62
18161;BMP280;9205;52.032;4.314;2023-05-19T08:39:34;102658.22;;;15.72
18161;BMP280;9205;52.032;4.314;2023-05-19T08:42:01;102657.28;;;15.77
18161;BMP280;9205;52.032;4.314;2023-05-19T08:44:29;102647.59;;;15.96
18161;BMP280;9205;52.032;4.314;2023-05-19T08:47:02;102643.19;;;16.05
18161;BMP280;9205;52.032;4.314;2023-05-19T08:49:34;102643.03;;;16.13
18161;BMP280;9205;52.032;4.314;2023-05-19T08:52:16;102642.97;;;16.17
18161;BMP280;9205;52.032;4.314;2023-05-19T08:54:52;102642.00;;;16.24
18161;BMP280;9205;52.032;4.314;2023-05-19T08:57:23;102641.91;;;16.32
18161;BMP280;9205;52.032;4.314;2023-05-19T08:59:52;102634.97;;;16.37
18161;BMP280;9205;52.032;4.314;2023-05-19T09:02:22;102635.72;;;16.43
18161;BMP280;9205;52.032;4.314;2023-05-19T09:04:49;102635.53;;;16.53
18161;BMP280;9205;52.032;4.314;2023-05-19T09:07:19;102640.44;;;16.67
18161;BMP280;9205;52.032;4.314;2023-05-19T09:09:48;102631.78;;;16.72
18161;BMP280;9205;52.032;4.314;2023-05-19T09:12:15;102633.34;;;16.78
18161;BMP280;9205;52.032;4.314;2023-05-19T09:14:43;102629.13;;;16.75
18161;BMP280;9205;52.032;4.314;2023-05-19T09:17:11;102628.16;;;16.81
18161;BMP280;9205;52.032;4.314;2023-05-19T09:19:44;102639.00;;;16.95
18161;BMP280;9205;52.032;4.314;2023-05-19T09:22:15;102625.84;;;17.11
18161;BMP280;9205;52.032;4.314;2023-05-19T09:24:44;102628.44;;;17.11
18161;BMP280;9205;52.032;4.314;2023-05-19T09:27:20;102629.91;;;17.21
18161;BMP280;9205;52.032;4.314;2023-05-19T09:29:48;102620.44;;;17.23
18161;BMP280;9205;52.032;4.314;2023-05-19T09:32:24;102626.22;;;17.35
18161;BMP280;9205;52.032;4.314;2023-05-19T09:34:54;102639.78;;;17.42
18161;BMP280;9205;52.032;4.314;2023-05-19T09:37:22;102632.81;;;17.47
18161;BMP280;9205;52.032;4.314;2023-05-19T09:39:50;102635.19;;;17.54
18161;BMP280;9205;52.032;4.314;2023-05-19T09:42:25;102622.91;;;17.67
18161;BMP280;9205;52.032;4.314;2023-05-19T09:44:59;102623.72;;;17.69
18161;BMP280;9205;52.032;4.314;2023-05-19T09:47:27;102620.22;;;17.73
18161;BMP280;9205;52.032;4.314;2023-05-19T09:49:56;102632.88;;;17.80
18161;BMP280;9205;52.032;4.314;2023-05-19T09:52:23;102618.13;;;17.88
18161;BMP280;9205;52.032;4.314;2023-05-19T09:54:50;102616.38;;;17.89
18161;BMP280;9205;52.032;4.314;2023-05-19T09:57:25;102618.84;;;17.95
18161;BMP280;9205;52.032;4.314;2023-05-19T09:59:54;102614.34;;;18.03
18161;BMP280;9205;52.032;4.314;2023-05-19T10:02:25;102608.91;;;18.14
18161;BMP280;9205;52.032;4.314;2023-05-19T10:04:55;102610.28;;;18.29
18161;BMP280;9205;52.032;4.314;2023-05-19T10:07:23;102610.31;;;18.27
18161;BMP280;9205;52.032;4.314;2023-05-19T10:09:52;102605.78;;;18.37
18161;BMP280;9205;52.032;4.314;2023-05-19T10:12:20;102609.13;;;18.39
18161;BMP280;9205;52.032;4.314;2023-05-19T10:14:49;102616.84;;;18.40
18161;BMP280;9205;52.032;4.314;2023-05-19T10:17:18;102609.00;;;18.43
18161;BMP280;9205;52.032;4.314;2023-05-19T10:19:49;102610.66;;;18.47
18161;BMP280;9205;52.032;4.314;2023-05-19T10:22:21;102610.31;;;18.59
18161;BMP280;9205;52.032;4.314;2023-05-19T10:24:48;102611.06;;;18.63
18161;BMP280;9205;52.032;4.314;2023-05-19T10:27:17;102613.69;;;18.61
18161;BMP280;9205;52.032;4.314;2023-05-19T10:29:49;102611.13;;;18.61
18161;BMP280;9205;52.032;4.314;2023-05-19T10:32:23;102605.72;;;18.70
18161;BMP280;9205;52.032;4.314;2023-05-19T10:35:19;102597.75;;;18.79
18161;BMP280;9205;52.032;4.314;2023-05-19T10:38:00;102594.75;;;18.92
18161;BMP280;9205;52.032;4.314;2023-05-19T10:40:36;102595.84;;;19.16
18161;BMP280;9205;52.032;4.314;2023-05-19T10:43:19;102585.69;;;19.39
18161;BMP280;9205;52.032;4.314;2023-05-19T10:45:51;102583.34;;;19.84
18161;BMP280;9205;52.032;4.314;2023-05-19T10:48:20;102578.19;;;19.84
18161;BMP280;9205;52.032;4.314;2023-05-19T10:50:52;102574.31;;;19.71
18161;BMP280;9205;52.032;4.314;2023-05-19T10:53:20;102568.78;;;20.09
18161;BMP280;9205;52.032;4.314;2023-05-19T10:55:52;102570.06;;;20.69
18161;BMP280;9205;52.032;4.314;2023-05-19T10:58:40;102563.78;;;21.65
18161;BMP280;9205;52.032;4.314;2023-05-19T11:01:17;102565.72;;;22.41
18161;BMP280;9205;52.032;4.314;2023-05-19T11:03:46;102564.03;;;22.40
18161;BMP280;9205;52.032;4.314;2023-05-19T11:06:25;102562.84;;;22.07
18161;BMP280;9205;52.032;4.314;2023-05-19T11:08:57;102563.00;;;22.04
18161;BMP280;9205;52.032;4.314;2023-05-19T11:11:26;102557.41;;;22.13
18161;BMP280;9205;52.032;4.314;2023-05-19T11:14:10;102567.25;;;22.05
18161;BMP280;9205;52.032;4.314;2023-05-19T11:16:39;102568.03;;;22.07
18161;BMP280;9205;52.032;4.314;2023-05-19T11:19:08;102566.09;;;22.12
18161;BMP280;9205;52.032;4.314;2023-05-19T11:21:47;102570.56;;;22.08
18161;BMP280;9205;52.032;4.314;2023-05-19T11:24:37;102568.03;;;21.87
18161;BMP280;9205;52.032;4.314;2023-05-19T11:27:20;102571.97;;;21.54
18161;BMP280;9205;52.032;4.314;2023-05-19T11:29:49;102563.94;;;21.18
18161;BMP280;9205;52.032;4.314;2023-05-19T11:32:19;102560.03;;;20.85
18161;BMP280;9205;52.032;4.314;2023-05-19T11:34:47;102563.63;;;20.81
18161;BMP280;9205;52.032;4.314;2023-05-19T11:37:15;102566.81;;;20.87
18161;BMP280;9205;52.032;4.314;2023-05-19T11:39:45;102557.09;;;20.94
18161;BMP280;9205;52.032;4.314;2023-05-19T11:42:13;102554.63;;;20.91
18161;BMP280;9205;52.032;4.314;2023-05-19T11:44:41;102539.81;;;20.96
18161;BMP280;9205;52.032;4.314;2023-05-19T11:47:11;102557.09;;;20.94
18161;BMP280;9205;52.032;4.314;2023-05-19T11:49:42;102549.75;;;21.06
18161;BMP280;9205;52.032;4.314;2023-05-19T11:52:09;102561.94;;;21.03
18161;BMP280;9205;52.032;4.314;2023-05-19T11:54:37;102558.81;;;20.95
18161;BMP280;9205;52.032;4.314;2023-05-19T11:57:08;102544.69;;;21.03
18161;BMP280;9205;52.032;4.314;2023-05-19T11:59:37;102541.16;;;21.27
18161;BMP280;9205;52.032;4.314;2023-05-19T12:02:19;102529.13;;;21.47
18161;BMP280;9205;52.032;4.314;2023-05-19T12:04:47;102539.97;;;21.57
18161;BMP280;9205;52.032;4.314;2023-05-19T12:07:16;102533.63;;;21.64
18161;BMP280;9205;52.032;4.314;2023-05-19T12:09:45;102538.78;;;21.65
18161;BMP280;9205;52.032;4.314;2023-05-19T12:12:16;102533.88;;;21.79
18161;BMP280;9205;52.032;4.314;2023-05-19T12:14:45;102538.31;;;21.96
18161;BMP280;9205;52.032;4.314;2023-05-19T12:17:14;102534.34;;;22.08
18161;BMP280;9205;52.032;4.314;2023-05-19T12:19:44;102533.34;;;22.11
18161;BMP280;9205;52.032;4.314;2023-05-19T12:22:12;102532.19;;;22.18
18161;BMP280;9205;52.032;4.314;2023-05-19T12:24:40;102530.75;;;22.11
18161;BMP280;9205;52.032;4.314;2023-05-19T12:27:18;102537.22;;;22.01
18161;BMP280;9205;52.032;4.314;2023-05-19T12:29:50;102527.41;;;22.09
18161;BMP280;9205;52.032;4.314;2023-05-19T12:32:22;102533.78;;;22.20
18161;BMP280;9205;52.032;4.314;2023-05-19T12:34:50;102535.75;;;22.35
18161;BMP280;9205;52.032;4.314;2023-05-19T12:37:17;102525.03;;;22.23
18161;BMP280;9205;52.032;4.314;2023-05-19T12:39:47;102517.44;;;22.20
18161;BMP280;9205;52.032;4.314;2023-05-19T12:42:15;102518.25;;;22.20
18161;BMP280;9205;52.032;4.314;2023-05-19T12:44:46;102515.22;;;22.31
18161;BMP280;9205;52.032;4.314;2023-05-19T12:47:16;102524.94;;;22.26
18161;BMP280;9205;52.032;4.314;2023-05-19T12:49:54;102512.38;;;22.37
18161;BMP280;9205;52.032;4.314;2023-05-19T12:52:22;102519.63;;;22.49
18161;BMP280;9205;52.032;4.314;2023-05-19T12:54:49;102520.72;;;22.62
18161;BMP280;9205;52.032;4.314;2023-05-19T12:57:24;102509.53;;;22.61
18161;BMP280;9205;52.032;4.314;2023-05-19T12:59:59;102506.88;;;22.63
18161;BMP280;9205;52.032;4.314;2023-05-19T13:02:26;102501.41;;;22.69
18161;BMP280;9205;52.032;4.314;2023-05-19T13:04:57;102495.25;;;22.89
18161;BMP280;9205;52.032;4.314;2023-05-19T13:07:25;102497.63;;;22.76
18161;BMP280;9205;52.032;4.314;2023-05-19T13:09:53;102504.38;;;22.61
18161;BMP280;9205;52.032;4.314;2023-05-19T13:12:20;102497.34;;;22.45
18161;BMP280;9205;52.032;4.314;2023-05-19T13:14:47;102489.44;;;22.48
18161;BMP280;9205;52.032;4.314;2023-05-19T13:17:16;102502.88;;;22.56
18161;BMP280;9205;52.032;4.314;2023-05-19T13:19:44;102501.00;;;22.59
18161;BMP280;9205;52.032;4.314;2023-05-19T13:22:11;102495.69;;;22.62
18161;BMP280;9205;52.032;4.314;2023-05-19T13:24:38;102481.16;;;22.77
18161;BMP280;9205;52.032;4.314;2023-05-19T13:27:06;102476.47;;;22.85
18161;BMP280;9205;52.032;4.314;2023-05-19T13:29:34;102480.53;;;22.90
18161;BMP280;9205;52.032;4.314;2023-05-19T13:32:02;102489.31;;;22.88
18161;BMP280;9205;52.032;4.314;2023-05-19T13:34:31;102485.34;;;22.97
18161;BMP280;9205;52.032;4.314;2023-05-19T13:36:58;102484.31;;;23.01
18161;BMP280;9205;52.032;4.314;2023-05-19T13:39:25;102478.84;;;23.07
18161;BMP280;9205;52.032;4.314;2023-05-19T13:41:52;102476.03;;;23.12
18161;BMP280;9205;52.032;4.314;2023-05-19T13:44:20;102473.69;;;23.24
18161;BMP280;9205;52.032;4.314;2023-05-19T13:46:49;102466.84;;;23.23
18161;BMP280;9205;52.032;4.314;2023-05-19T13:49:16;102461.03;;;23.18
18161;BMP280;9205;52.032;4.314;2023-05-19T13:51:45;102466.25;;;23.35
18161;BMP280;9205;52.032;4.314;2023-05-19T13:54:12;102470.22;;;23.42
18161;BMP280;9205;52.032;4.314;2023-05-19T13:56:40;102473.03;;;23.38
18161;BMP280;9205;52.032;4.314;2023-05-19T13:59:24;102465.56;;;23.49
18161;BMP280;9205;52.032;4.314;2023-05-19T14:01:52;102470.88;;;23.29
18161;BMP280;9205;52.032;4.314;2023-05-19T14:04:23;102470.50;;;23.19
18161;BMP280;9205;52.032;4.314;2023-05-19T14:06:52;102464.41;;;23.20
18161;BMP280;9205;52.032;4.314;2023-05-19T14:09:19;102461.06;;;23.35
18161;BMP280;9205;52.032;4.314;2023-05-19T14:11:46;102460.38;;;23.32
18161;BMP280;9205;52.032;4.314;2023-05-19T14:14:14;102467.78;;;23.39
18161;BMP280;9205;52.032;4.314;2023-05-19T14:16:41;102455.16;;;23.15
18161;BMP280;9205;52.032;4.314;2023-05-19T14:19:08;102465.16;;;23.22
18161;BMP280;9205;52.032;4.314;2023-05-19T14:21:36;102462.72;;;23.19
18161;BMP280;9205;52.032;4.314;2023-05-19T14:24:05;102455.78;;;23.37
18161;BMP280;9205;52.032;4.314;2023-05-19T14:26:33;102451.50;;;23.19
18161;BMP280;9205;52.032;4.314;2023-05-19T14:29:04;102444.88;;;22.95